sensor_id;sensor_type;location;lat;lon;timestamp;pressure;altitude;pressure_sealevel;temperature;humidity
18918;BME280;9591;52.742;13.650;2022-07-29T00:00:15;101545.78;;;12.72;100.00
18918;BME280;9591;52.742;13.650;2022-07-29T00:03:02;101537.91;;;12.69;100.00
18918;BME280;9591;52.742;13.650;2022-07-29T00:05:50;101544.13;;;12.68;100.00
18918;BME280;9591;52.742;13.650;2022-07-29T00:08:37;101537.25;;;12.61;100.00
18918;BME280;9591;52.742;13.650;2022-07-29T00:11:23;101544.47;;;12.56;100.00
18918;BME280;9591;52.742;13.650;2022-07-29T00:14:10;101549.81;;;12.54;100.00
18918;BME280;9591;52.742;13.650;2022-07-29T00:16:58;101547.25;;;12.51;100.00
18918;BME280;9591;52.742;13.650;2022-07-29T00:19:45;101535.09;;;12.42;100.00
18918;BME280;9591;52.742;13.650;2022-07-29T00:22:38;101538.66;;;12.41;100.00
18918;BME280;9591;52.742;13.650;2022-07-29T00:25:25;101536.91;;;12.40;100.00
18918;BME280;9591;52.742;13.650;2022-07-29T00:28:12;101532.66;;;12.33;100.00
18918;BME280;9591;52.742;13.650;2022-07-29T00:31:01;101534.47;;;12.33;100.00
18918;BME280;9591;52.742;13.650;2022-07-29T00:33:48;101542.50;;;12.30;100.00
18918;BME280;9591;52.742;13.650;2022-07-29T00:36:35;101535.28;;;12.35;100.00
18918;BME280;9591;52.742;13.650;2022-07-29T00:39:22;101538.09;;;12.29;100.00
18918;BME280;9591;52.742;13.650;2022-07-29T00:42:10;101538.06;;;12.30;100.00
18918;BME280;9591;52.742;13.650;2022-07-29T00:44:57;101535.56;;;12.24;100.00
18918;BME280;9591;52.742;13.650;2022-07-29T00:47:44;101525.00;;;12.23;100.00
18918;BME280;9591;52.742;13.650;2022-07-29T00:50:39;101529.63;;;12.14;100.00
18918;BME280;9591;52.742;13.650;2022-07-29T00:53:26;101527.97;;;12.12;100.00
18918;BME280;9591;52.742;13.650;2022-07-29T00:56:14;101521.81;;;12.10;100.00
18918;BME280;9591;52.742;13.650;2022-07-29T00:59:01;101522.72;;;12.09;100.00
18918;BME280;9591;52.742;13.650;2022-07-29T01:01:48;101521.03;;;12.06;100.00
18918;BME280;9591;52.742;13.650;2022-07-29T01:04:34;101517.50;;;12.06;100.00
18918;BME280;9591;52.742;13.650;2022-07-29T01:07:21;101523.78;;;12.02;100.00
18918;BME280;9591;52.742;13.650;2022-07-29T01:10:09;101521.19;;;12.00;100.00
18918;BME280;9591;52.742;13.650;2022-07-29T01:12:59;101510.69;;;11.96;100.00
18918;BME280;9591;52.742;13.650;2022-07-29T01:15:56;101514.25;;;11.95;100.00
18918;BME280;9591;52.742;13.650;2022-07-29T01:18:46;101510.69;;;11.96;100.00
18918;BME280;9591;52.742;13.650;2022-07-29T01:21:48;101507.97;;;11.97;100.00
18918;BME280;9591;52.742;13.650;2022-07-29T01:24:57;101510.72;;;11.94;100.00
18918;BME280;9591;52.742;13.650;2022-07-29T01:28:05;101502.81;;;11.91;100.00
18918;BME280;9591;52.742;13.650;2022-07-29T01:30:58;101494.91;;;11.90;100.00
18918;BME280;9591;52.742;13.650;2022-07-29T01:33:51;101500.28;;;11.87;100.00
18918;BME280;9591;52.742;13.650;2022-07-29T01:36:43;101457.66;;;11.57;100.00
18918;BME280;9591;52.742;13.650;2022-07-29T01:39:33;101493.44;;;11.76;100.00
18918;BME280;9591;52.742;13.650;2022-07-29T01:42:27;101495.84;;;11.87;100.00
18918;BME280;9591;52.742;13.650;2022-07-29T01:45:19;101496.00;;;11.81;100.00
18918;BME280;9591;52.742;13.650;2022-07-29T01:48:12;101485.56;;;11.73;100.00
18918;BME280;9591;52.742;13.650;2022-07-29T01:51:04;101489.13;;;11.72;100.00
18918;BME280;9591;52.742;13.650;2022-07-29T01:53:58;101491.66;;;11.78;100.00
18918;BME280;9591;52.742;13.650;2022-07-29T01:56:48;101472.28;;;11.73;100.00
18918;BME280;9591;52.742;13.650;2022-07-29T01:59:37;101473.31;;;11.68;100.00
18918;BME280;9591;52.742;13.650;2022-07-29T02:02:25;101458.34;;;11.65;100.00
18918;BME280;9591;52.742;13.650;2022-07-29T02:05:15;101453.09;;;11.62;100.00
18918;BME280;9591;52.742;13.650;2022-07-29T02:08:05;101439.88;;;11.61;100.00
18918;BME280;9591;52.742;13.650;2022-07-29T02:10:53;101433.84;;;11.54;100.00
18918;BME280;9591;52.742;13.650;2022-07-29T02:13:43;101433.84;;;11.54;100.00
18918;BME280;9591;52.742;13.650;2022-07-29T02:16:32;101422.41;;;11.52;100.00
18918;BME280;9591;52.742;13.650;2022-07-29T02:19:22;101418.84;;;11.53;100.00
18918;BME280;9591;52.742;13.650;2022-07-29T02:22:12;101414.47;;;11.50;100.00
18918;BME280;9591;52.742;13.650;2022-07-29T02:24:59;101396.03;;;11.46;100.00
18918;BME280;9591;52.742;13.650;2022-07-29T02:27:49;101427.59;;;11.57;100.00
18918;BME280;9591;52.742;13.650;2022-07-29T02:30:40;101426.59;;;11.61;100.00
18918;BME280;9591;52.742;13.650;2022-07-29T02:33:29;101427.50;;;11.60;100.00
18918;BME280;9591;52.742;13.650;2022-07-29T02:36:17;101429.59;;;11.47;100.00
18918;BME280;9591;52.742;13.650;2022-07-29T02:39:09;101430.28;;;11.55;100.00
18918;BME280;9591;52.742;13.650;2022-07-29T02:42:01;101432.06;;;11.55;100.00
18918;BME280;9591;52.742;13.650;2022-07-29T02:44:48;101442.72;;;11.53;100.00
18918;BME280;9591;52.742;13.650;2022-07-29T02:47:38;101432.09;;;11.53;100.00
18918;BME280;9591;52.742;13.650;2022-07-29T02:50:30;101443.66;;;11.50;100.00
18918;BME280;9591;52.742;13.650;2022-07-29T02:53:20;101445.44;;;11.50;100.00
18918;BME280;9591;52.742;13.650;2022-07-29T02:56:13;101449.03;;;11.47;100.00
18918;BME280;9591;52.742;13.650;2022-07-29T02:59:04;101444.69;;;11.45;100.00
18918;BME280;9591;52.742;13.650;2022-07-29T03:01:54;101456.03;;;11.52;100.00
18918;BME280;9591;52.742;13.650;2022-07-29T03:04:43;101458.53;;;11.58;100.00
18918;BME280;9591;52.742;13.650;2022-07-29T03:07:31;101454.06;;;11.60;100.00
18918;BME280;9591;52.742;13.650;2022-07-29T03:10:19;101433.13;;;11.47;100.00
18918;BME280;9591;52.742;13.650;2022-07-29T03:13:07;101448.75;;;11.60;100.00
18918;BME280;9591;52.742;13.650;2022-07-29T03:15:56;101445.09;;;11.64;100.00
18918;BME280;9591;52.742;13.650;2022-07-29T03:18:44;101437.97;;;11.66;100.00
18918;BME280;9591;52.742;13.650;2022-07-29T03:21:30;101445.03;;;11.67;100.00
18918;BME280;9591;52.742;13.650;2022-07-29T03:24:28;101452.22;;;11.62;100.00
18918;BME280;9591;52.742;13.650;2022-07-29T03:27:15;101430.44;;;11.49;100.00
18918;BME280;9591;52.742;13.650;2022-07-29T03:30:04;101423.66;;;11.37;100.00
18918;BME280;9591;52.742;13.650;2022-07-29T03:32:53;101433.97;;;11.49;100.00
18918;BME280;9591;52.742;13.650;2022-07-29T03:35:42;101435.59;;;11.55;100.00
18918;BME280;9591;52.742;13.650;2022-07-29T03:38:30;101439.03;;;11.59;100.00
18918;BME280;9591;52.742;13.650;2022-07-29T03:41:20;101443.41;;;11.61;100.00
18918;BME280;9591;52.742;13.650;2022-07-29T03:44:08;101436.94;;;11.71;100.00
18918;BME280;9591;52.742;13.650;2022-07-29T03:46:59;101435.09;;;11.75;100.00
18918;BME280;9591;52.742;13.650;2022-07-29T03:49:48;101436.81;;;11.77;100.00
18918;BME280;9591;52.742;13.650;2022-07-29T03:52:36;101421.69;;;11.81;100.00
18918;BME280;9591;52.742;13.650;2022-07-29T03:55:23;101429.53;;;11.86;100.00
18918;BME280;9591;52.742;13.650;2022-07-29T03:58:11;101424.91;;;11.94;100.00
18918;BME280;9591;52.742;13.650;2022-07-29T04:00:59;101435.34;;;12.00;100.00
18918;BME280;9591;52.742;13.650;2022-07-29T04:03:47;101429.88;;;12.06;100.00
18918;BME280;9591;52.742;13.650;2022-07-29T04:06:38;101423.59;;;12.08;100.00
18918;BME280;9591;52.742;13.650;2022-07-29T04:09:25;101419.78;;;12.17;100.00
18918;BME280;9591;52.742;13.650;2022-07-29T04:12:12;101425.94;;;12.19;100.00
18918;BME280;9591;52.742;13.650;2022-07-29T04:14:59;101423.25;;;12.21;100.00
18918;BME280;9591;52.742;13.650;2022-07-29T04:17:45;101419.50;;;12.28;100.00
18918;BME280;9591;52.742;13.650;2022-07-29T04:20:35;101412.22;;;12.34;100.00
18918;BME280;9591;52.742;13.650;2022-07-29T04:23:22;101421.75;;;12.41;100.00
18918;BME280;9591;52.742;13.650;2022-07-29T04:26:09;101418.16;;;12.44;100.00
18918;BME280;9591;52.742;13.650;2022-07-29T04:28:56;101417.97;;;12.50;100.00
18918;BME280;9591;52.742;13.650;2022-07-29T04:31:43;101423.06;;;12.58;100.00
18918;BME280;9591;52.742;13.650;2022-07-29T04:34:30;101427.38;;;12.62;100.00
18918;BME280;9591;52.742;13.650;2022-07-29T04:37:18;101429.75;;;12.71;100.00
18918;BME280;9591;52.742;13.650;2022-07-29T04:40:06;101429.72;;;12.72;100.00
18918;BME280;9591;52.742;13.650;2022-07-29T04:42:53;101438.41;;;12.77;100.00
18918;BME280;9591;52.742;13.650;2022-07-29T04:45:44;101435.53;;;12.85;100.00
18918;BME280;9591;52.742;13.650;2022-07-29T04:48:31;101434.41;;;12.92;100.00
18918;BME280;9591;52.742;13.650;2022-07-29T04:51:18;101434.97;;;13.02;100.00
18918;BME280;9591;52.742;13.650;2022-07-29T04:54:06;101439.97;;;13.12;100.00
18918;BME280;9591;52.742;13.650;2022-07-29T04:56:53;101432.81;;;13.14;100.00
18918;BME280;9591;52.742;13.650;2022-07-29T04:59:44;101429.97;;;13.21;100.00
18918;BME280;9591;52.742;13.650;2022-07-29T05:02:40;101438.53;;;13.30;100.00
18918;BME280;9591;52.742;13.650;2022-07-29T05:05:27;101442.69;;;13.39;100.00
18918;BME280;9591;52.742;13.650;2022-07-29T05:08:14;101447.63;;;13.51;100.00
18918;BME280;9591;52.742;13.650;2022-07-29T05:11:02;101449.88;;;13.63;100.00
18918;BME280;9591;52.742;13.650;2022-07-29T05:13:57;101446.91;;;13.72;100.00
18918;BME280;9591;52.742;13.650;2022-07-29T05:16:43;101443.06;;;13.81;100.00
18918;BME280;9591;52.742;13.650;2022-07-29T05:19:30;101440.81;;;13.94;100.00
18918;BME280;9591;52.742;13.650;2022-07-29T05:22:17;101441.53;;;13.99;100.00
18918;BME280;9591;52.742;13.650;2022-07-29T05:25:05;101443.22;;;14.01;100.00
18918;BME280;9591;52.742;13.650;2022-07-29T05:27:55;101430.75;;;14.02;100.00
18918;BME280;9591;52.742;13.650;2022-07-29T05:30:42;101431.47;;;14.07;100.00
18918;BME280;9591;52.742;13.650;2022-07-29T05:33:29;101437.63;;;14.09;100.00
18918;BME280;9591;52.742;13.650;2022-07-29T05:36:21;101435.50;;;14.19;100.00
18918;BME280;9591;52.742;13.650;2022-07-29T05:39:07;101428.47;;;14.41;100.00
18918;BME280;9591;52.742;13.650;2022-07-29T05:41:54;101425.84;;;14.86;100.00
18918;BME280;9591;52.742;13.650;2022-07-29T05:44:42;101421.19;;;15.58;100.00
18918;BME280;9591;52.742;13.650;2022-07-29T05:47:29;101419.91;;;16.08;100.00
18918;BME280;9591;52.742;13.650;2022-07-29T05:50:17;101413.53;;;16.49;100.00
18918;BME280;9591;52.742;13.650;2022-07-29T05:53:05;101419.13;;;16.63;100.00
18918;BME280;9591;52.742;13.650;2022-07-29T05:56:05;101403.97;;;16.83;100.00
18918;BME280;9591;52.742;13.650;2022-07-29T05:58:53;101407.88;;;16.94;98.51
18918;BME280;9591;52.742;13.650;2022-07-29T06:01:42;101411.34;;;16.96;100.00
18918;BME280;9591;52.742;13.650;2022-07-29T06:04:30;101403.31;;;16.96;100.00
18918;BME280;9591;52.742;13.650;2022-07-29T06:07:16;101414.25;;;16.73;100.00
18918;BME280;9591;52.742;13.650;2022-07-29T06:10:04;101413.66;;;16.66;100.00
18918;BME280;9591;52.742;13.650;2022-07-29T06:12:51;101409.34;;;16.62;100.00
18918;BME280;9591;52.742;13.650;2022-07-29T06:15:38;101400.69;;;16.57;100.00
18918;BME280;9591;52.742;13.650;2022-07-29T06:18:26;101414.84;;;16.59;100.00
18918;BME280;9591;52.742;13.650;2022-07-29T06:21:14;101411.44;;;16.56;100.00
18918;BME280;9591;52.742;13.650;2022-07-29T06:24:01;101409.03;;;16.70;100.00
18918;BME280;9591;52.742;13.650;2022-07-29T06:26:48;101415.97;;;16.74;100.00
18918;BME280;9591;52.742;13.650;2022-07-29T06:29:34;101407.66;;;16.80;100.00
18918;BME280;9591;52.742;13.650;2022-07-29T06:32:21;101410.69;;;16.91;100.00
18918;BME280;9591;52.742;13.650;2022-07-29T06:35:13;101418.00;;;16.88;100.00
18918;BME280;9591;52.742;13.650;2022-07-29T06:38:19;101421.13;;;16.97;100.00
18918;BME280;9591;52.742;13.650;2022-07-29T06:41:18;101421.91;;;16.99;100.00
18918;BME280;9591;52.742;13.650;2022-07-29T06:44:05;101421.97;;;17.17;100.00
18918;BME280;9591;52.742;13.650;2022-07-29T06:46:52;101424.41;;;17.38;98.81
18918;BME280;9591;52.742;13.650;2022-07-29T06:49:40;101421.28;;;17.48;97.80
18918;BME280;9591;52.742;13.650;2022-07-29T06:52:28;101420.13;;;17.53;98.63
18918;BME280;9591;52.742;13.650;2022-07-29T06:55:15;101413.63;;;17.76;97.68
18918;BME280;9591;52.742;13.650;2022-07-29T06:58:10;101413.22;;;17.84;97.93
18918;BME280;9591;52.742;13.650;2022-07-29T07:00:58;101419.69;;;17.97;91.75
18918;BME280;9591;52.742;13.650;2022-07-29T07:03:48;101417.56;;;18.04;94.21
18918;BME280;9591;52.742;13.650;2022-07-29T07:06:35;101414.22;;;18.16;94.62
18918;BME280;9591;52.742;13.650;2022-07-29T07:09:24;101412.44;;;18.32;94.27
18918;BME280;9591;52.742;13.650;2022-07-29T07:12:30;101415.44;;;18.59;95.19
18918;BME280;9591;52.742;13.650;2022-07-29T07:15:19;101417.44;;;18.55;92.31
18918;BME280;9591;52.742;13.650;2022-07-29T07:18:23;101423.34;;;18.62;91.78
18918;BME280;9591;52.742;13.650;2022-07-29T07:21:10;101417.25;;;18.58;92.02
18918;BME280;9591;52.742;13.650;2022-07-29T07:24:04;101418.34;;;18.72;91.57
18918;BME280;9591;52.742;13.650;2022-07-29T07:26:52;101407.25;;;18.62;94.51
18918;BME280;9591;52.742;13.650;2022-07-29T07:29:39;101408.84;;;18.82;94.56
18918;BME280;9591;52.742;13.650;2022-07-29T07:32:28;101406.16;;;18.82;94.64
18918;BME280;9591;52.742;13.650;2022-07-29T07:35:15;101415.44;;;18.92;93.19
18918;BME280;9591;52.742;13.650;2022-07-29T07:38:02;101423.06;;;18.99;91.83
18918;BME280;9591;52.742;13.650;2022-07-29T07:40:48;101417.94;;;18.95;93.41
18918;BME280;9591;52.742;13.650;2022-07-29T07:43:36;101428.41;;;18.99;91.42
18918;BME280;9591;52.742;13.650;2022-07-29T07:46:23;101423.28;;;19.11;91.26
18918;BME280;9591;52.742;13.650;2022-07-29T07:49:10;101427.69;;;19.27;88.28
18918;BME280;9591;52.742;13.650;2022-07-29T07:51:57;101430.09;;;19.48;86.87
18918;BME280;9591;52.742;13.650;2022-07-29T07:54:43;101422.44;;;19.72;83.80
18918;BME280;9591;52.742;13.650;2022-07-29T07:57:30;101415.16;;;19.74;84.41
18918;BME280;9591;52.742;13.650;2022-07-29T08:00:18;101409.81;;;19.88;83.06
18918;BME280;9591;52.742;13.650;2022-07-29T08:03:07;101416.84;;;19.90;85.16
18918;BME280;9591;52.742;13.650;2022-07-29T08:06:01;101413.19;;;19.91;84.61
18918;BME280;9591;52.742;13.650;2022-07-29T08:08:48;101403.88;;;20.11;83.31
18918;BME280;9591;52.742;13.650;2022-07-29T08:11:36;101401.13;;;20.27;85.36
18918;BME280;9591;52.742;13.650;2022-07-29T08:14:36;101407.41;;;20.42;84.09
18918;BME280;9591;52.742;13.650;2022-07-29T08:17:24;101404.59;;;20.57;80.78
18918;BME280;9591;52.742;13.650;2022-07-29T08:20:11;101404.22;;;20.78;81.96
18918;BME280;9591;52.742;13.650;2022-07-29T08:22:58;101406.50;;;21.11;78.35
18918;BME280;9591;52.742;13.650;2022-07-29T08:25:45;101411.19;;;21.36;77.59
18918;BME280;9591;52.742;13.650;2022-07-29T08:28:34;101408.38;;;21.64;71.33
18918;BME280;9591;52.742;13.650;2022-07-29T08:31:21;101401.16;;;21.90;70.96
18918;BME280;9591;52.742;13.650;2022-07-29T08:34:09;101401.75;;;22.20;69.19
18918;BME280;9591;52.742;13.650;2022-07-29T08:36:56;101394.75;;;22.43;68.95
18918;BME280;9591;52.742;13.650;2022-07-29T08:39:43;101394.47;;;22.59;66.71
18918;BME280;9591;52.742;13.650;2022-07-29T08:42:30;101392.28;;;22.89;66.95
18918;BME280;9591;52.742;13.650;2022-07-29T08:45:17;101389.84;;;23.10;64.56
18918;BME280;9591;52.742;13.650;2022-07-29T08:48:04;101384.00;;;23.51;62.60
18918;BME280;9591;52.742;13.650;2022-07-29T08:50:56;101383.66;;;23.56;62.13
18918;BME280;9591;52.742;13.650;2022-07-29T08:53:45;101385.72;;;23.52;58.61
18918;BME280;9591;52.742;13.650;2022-07-29T08:56:34;101380.63;;;23.61;60.11
18918;BME280;9591;52.742;13.650;2022-07-29T08:59:23;101381.41;;;23.74;59.78
18918;BME280;9591;52.742;13.650;2022-07-29T09:02:21;101386.84;;;23.85;59.53
18918;BME280;9591;52.742;13.650;2022-07-29T09:05:21;101383.16;;;23.86;59.51
18918;BME280;9591;52.742;13.650;2022-07-29T09:08:11;101379.97;;;23.92;56.17
18918;BME280;9591;52.742;13.650;2022-07-29T09:11:00;101374.31;;;23.95;56.00
18918;BME280;9591;52.742;13.650;2022-07-29T09:13:50;101373.59;;;24.04;55.01
18918;BME280;9591;52.742;13.650;2022-07-29T09:16:44;101370.03;;;24.04;57.26
18918;BME280;9591;52.742;13.650;2022-07-29T09:19:37;101364.41;;;24.18;53.26
18918;BME280;9591;52.742;13.650;2022-07-29T09:22:29;101361.94;;;24.37;51.55
18918;BME280;9591;52.742;13.650;2022-07-29T09:25:35;101355.06;;;24.44;49.46
18918;BME280;9591;52.742;13.650;2022-07-29T09:28:22;101345.22;;;24.32;51.56
18918;BME280;9591;52.742;13.650;2022-07-29T09:31:10;101358.63;;;24.34;47.60
18918;BME280;9591;52.742;13.650;2022-07-29T09:33:58;101354.44;;;24.30;48.46
18918;BME280;9591;52.742;13.650;2022-07-29T09:36:47;101361.31;;;24.23;48.55
18918;BME280;9591;52.742;13.650;2022-07-29T09:39:36;101351.47;;;24.22;49.08
18918;BME280;9591;52.742;13.650;2022-07-29T09:42:30;101347.56;;;24.37;50.93
18918;BME280;9591;52.742;13.650;2022-07-29T09:45:29;101342.13;;;24.70;49.05
18918;BME280;9591;52.742;13.650;2022-07-29T09:48:18;101347.88;;;24.99;45.70
18918;BME280;9591;52.742;13.650;2022-07-29T09:51:05;101347.38;;;25.26;44.49
18918;BME280;9591;52.742;13.650;2022-07-29T09:53:52;101350.88;;;25.49;39.50
18918;BME280;9591;52.742;13.650;2022-07-29T09:56:40;101351.94;;;25.58;38.20
18918;BME280;9591;52.742;13.650;2022-07-29T09:59:28;101346.75;;;25.66;39.57
18918;BME280;9591;52.742;13.650;2022-07-29T10:02:15;101341.78;;;25.71;38.39
18918;BME280;9591;52.742;13.650;2022-07-29T10:05:17;101354.22;;;25.41;37.98
18918;BME280;9591;52.742;13.650;2022-07-29T10:08:04;101346.41;;;25.27;37.78
18918;BME280;9591;52.742;13.650;2022-07-29T10:11:08;101344.69;;;25.26;37.63
18918;BME280;9591;52.742;13.650;2022-07-29T10:13:55;101345.69;;;25.14;39.37
18918;BME280;9591;52.742;13.650;2022-07-29T10:16:45;101347.28;;;25.16;39.57
18918;BME280;9591;52.742;13.650;2022-07-29T10:19:33;101347.03;;;25.20;36.19
18918;BME280;9591;52.742;13.650;2022-07-29T10:22:20;101338.03;;;25.19;35.87
18918;BME280;9591;52.742;13.650;2022-07-29T10:25:27;101330.72;;;25.31;36.58
18918;BME280;9591;52.742;13.650;2022-07-29T10:28:13;101338.34;;;25.37;37.16
18918;BME280;9591;52.742;13.650;2022-07-29T10:31:04;101332.72;;;25.29;36.66
18918;BME280;9591;52.742;13.650;2022-07-29T10:34:03;101331.78;;;25.19;36.66
18918;BME280;9591;52.742;13.650;2022-07-29T10:36:59;101337.56;;;25.14;35.65
18918;BME280;9591;52.742;13.650;2022-07-29T10:40:06;101342.22;;;25.23;37.09
18918;BME280;9591;52.742;13.650;2022-07-29T10:43:18;101336.66;;;25.57;38.10
18918;BME280;9591;52.742;13.650;2022-07-29T10:46:06;101328.66;;;25.97;35.58
18918;BME280;9591;52.742;13.650;2022-07-29T10:49:10;101340.47;;;26.17;35.73
18918;BME280;9591;52.742;13.650;2022-07-29T10:52:02;101333.97;;;26.08;34.35
18918;BME280;9591;52.742;13.650;2022-07-29T10:54:50;101334.72;;;26.10;34.66
18918;BME280;9591;52.742;13.650;2022-07-29T10:57:38;101340.09;;;26.31;36.41
18918;BME280;9591;52.742;13.650;2022-07-29T11:00:48;101320.19;;;26.51;34.95
18918;BME280;9591;52.742;13.650;2022-07-29T11:03:45;101325.53;;;26.62;36.12
18918;BME280;9591;52.742;13.650;2022-07-29T11:07:10;101324.06;;;26.49;34.48
18918;BME280;9591;52.742;13.650;2022-07-29T11:10:22;101305.75;;;26.51;36.01
18918;BME280;9591;52.742;13.650;2022-07-29T11:13:46;101314.50;;;26.54;35.71
18918;BME280;9591;52.742;13.650;2022-07-29T11:16:58;101300.47;;;26.49;35.40
18918;BME280;9591;52.742;13.650;2022-07-29T11:19:46;101303.00;;;26.41;36.51
18918;BME280;9591;52.742;13.650;2022-07-29T11:22:38;101313.09;;;26.29;36.17
18918;BME280;9591;52.742;13.650;2022-07-29T11:25:31;101304.56;;;26.34;36.78
18918;BME280;9591;52.742;13.650;2022-07-29T11:28:39;101308.59;;;26.39;35.90
18918;BME280;9591;52.742;13.650;2022-07-29T11:31:37;101309.63;;;26.48;36.34
18918;BME280;9591;52.742;13.650;2022-07-29T11:34:27;101292.75;;;26.44;36.66
18918;BME280;9591;52.742;13.650;2022-07-29T11:37:23;101293.44;;;26.37;35.64
18918;BME280;9591;52.742;13.650;2022-07-29T11:40:22;101304.91;;;26.50;36.02
18918;BME280;9591;52.742;13.650;2022-07-29T11:43:09;101298.88;;;26.47;36.82
18918;BME280;9591;52.742;13.650;2022-07-29T11:45:58;101295.69;;;26.32;36.75
18918;BME280;9591;52.742;13.650;2022-07-29T11:48:45;101299.28;;;26.32;37.33
18918;BME280;9591;52.742;13.650;2022-07-29T11:51:37;101290.25;;;26.32;38.00
18918;BME280;9591;52.742;13.650;2022-07-29T11:54:34;101293.34;;;26.58;41.21
18918;BME280;9591;52.742;13.650;2022-07-29T11:57:50;101292.53;;;26.86;40.82
18918;BME280;9591;52.742;13.650;2022-07-29T12:00:48;101286.84;;;26.99;39.75
18918;BME280;9591;52.742;13.650;2022-07-29T12:03:35;101288.84;;;26.97;39.48
18918;BME280;9591;52.742;13.650;2022-07-29T12:06:23;101284.50;;;26.65;37.56
18918;BME280;9591;52.742;13.650;2022-07-29T12:09:10;101277.78;;;26.60;39.83
18918;BME280;9591;52.742;13.650;2022-07-29T12:11:59;101275.94;;;26.30;37.22
18918;BME280;9591;52.742;13.650;2022-07-29T12:14:51;101276.78;;;26.30;37.23
18918;BME280;9591;52.742;13.650;2022-07-29T12:17:38;101275.94;;;26.30;37.78
18918;BME280;9591;52.742;13.650;2022-07-29T12:20:27;101273.31;;;26.49;37.16
18918;BME280;9591;52.742;13.650;2022-07-29T12:23:14;101265.03;;;26.60;38.39
18918;BME280;9591;52.742;13.650;2022-07-29T12:26:04;101273.22;;;26.80;37.06
18918;BME280;9591;52.742;13.650;2022-07-29T12:29:06;101264.38;;;26.97;37.25
18918;BME280;9591;52.742;13.650;2022-07-29T12:32:05;101260.66;;;26.98;36.57
18918;BME280;9591;52.742;13.650;2022-07-29T12:35:05;101263.66;;;27.04;36.74
18918;BME280;9591;52.742;13.650;2022-07-29T12:37:53;101260.25;;;27.12;35.71
18918;BME280;9591;52.742;13.650;2022-07-29T12:40:41;101260.38;;;27.10;36.24
18918;BME280;9591;52.742;13.650;2022-07-29T12:43:31;101260.38;;;27.20;37.53
18918;BME280;9591;52.742;13.650;2022-07-29T12:46:17;101254.94;;;27.01;36.61
18918;BME280;9591;52.742;13.650;2022-07-29T12:49:06;101256.50;;;26.74;38.38
18918;BME280;9591;52.742;13.650;2022-07-29T12:51:54;101256.75;;;26.91;38.11
18918;BME280;9591;52.742;13.650;2022-07-29T12:54:46;101243.63;;;27.15;39.13
18918;BME280;9591;52.742;13.650;2022-07-29T12:57:44;101248.50;;;27.31;38.41
18918;BME280;9591;52.742;13.650;2022-07-29T13:00:32;101251.06;;;27.32;39.75
18918;BME280;9591;52.742;13.650;2022-07-29T13:03:18;101250.63;;;27.37;37.42
18918;BME280;9591;52.742;13.650;2022-07-29T13:06:07;101242.19;;;27.40;39.26
18918;BME280;9591;52.742;13.650;2022-07-29T13:09:01;101240.59;;;27.47;38.76
18918;BME280;9591;52.742;13.650;2022-07-29T13:11:52;101241.19;;;27.41;39.28
18918;BME280;9591;52.742;13.650;2022-07-29T13:14:40;101238.19;;;27.25;39.50
18918;BME280;9591;52.742;13.650;2022-07-29T13:17:27;101234.63;;;27.15;40.33
18918;BME280;9591;52.742;13.650;2022-07-29T13:20:16;101227.34;;;27.15;40.30
18918;BME280;9591;52.742;13.650;2022-07-29T13:23:05;101221.72;;;27.26;41.66
18918;BME280;9591;52.742;13.650;2022-07-29T13:25:52;101217.84;;;27.48;39.21
18918;BME280;9591;52.742;13.650;2022-07-29T13:28:39;101215.09;;;27.58;39.76
18918;BME280;9591;52.742;13.650;2022-07-29T13:31:28;101209.34;;;27.70;41.37
18918;BME280;9591;52.742;13.650;2022-07-29T13:34:15;101218.38;;;27.71;40.69
18918;BME280;9591;52.742;13.650;2022-07-29T13:37:02;101212.56;;;27.84;41.11
18918;BME280;9591;52.742;13.650;2022-07-29T13:39:50;101211.66;;;27.93;39.14
18918;BME280;9591;52.742;13.650;2022-07-29T13:42:38;101202.09;;;28.16;43.03
18918;BME280;9591;52.742;13.650;2022-07-29T13:45:25;101200.84;;;28.11;39.91
18918;BME280;9591;52.742;13.650;2022-07-29T13:48:13;101199.06;;;27.92;39.54
18918;BME280;9591;52.742;13.650;2022-07-29T13:51:00;101195.22;;;27.85;37.56
18918;BME280;9591;52.742;13.650;2022-07-29T13:53:47;101195.63;;;27.90;39.57
18918;BME280;9591;52.742;13.650;2022-07-29T13:56:35;101194.31;;;27.94;37.04
18918;BME280;9591;52.742;13.650;2022-07-29T13:59:21;101194.81;;;27.80;37.93
18918;BME280;9591;52.742;13.650;2022-07-29T14:02:10;101199.38;;;27.42;39.68
18918;BME280;9591;52.742;13.650;2022-07-29T14:05:00;101188.81;;;27.29;39.40
18918;BME280;9591;52.742;13.650;2022-07-29T14:07:52;101190.94;;;27.35;40.57
18918;BME280;9591;52.742;13.650;2022-07-29T14:10:39;101197.69;;;27.22;38.97
18918;BME280;9591;52.742;13.650;2022-07-29T14:13:27;101194.56;;;26.88;41.33
18918;BME280;9591;52.742;13.650;2022-07-29T14:16:16;101192.72;;;26.59;40.45
18918;BME280;9591;52.742;13.650;2022-07-29T14:19:03;101191.72;;;26.60;39.10
18918;BME280;9591;52.742;13.650;2022-07-29T14:21:49;101185.16;;;26.82;37.74
18918;BME280;9591;52.742;13.650;2022-07-29T14:24:36;101189.72;;;27.01;38.57
18918;BME280;9591;52.742;13.650;2022-07-29T14:27:23;101185.09;;;26.92;39.44
18918;BME280;9591;52.742;13.650;2022-07-29T14:30:24;101184.00;;;26.75;39.30
18918;BME280;9591;52.742;13.650;2022-07-29T14:33:10;101182.28;;;26.64;39.67
18918;BME280;9591;52.742;13.650;2022-07-29T14:35:57;101179.13;;;26.50;41.73
18918;BME280;9591;52.742;13.650;2022-07-29T14:38:46;101176.84;;;26.55;38.80
18918;BME280;9591;52.742;13.650;2022-07-29T14:41:32;101181.13;;;26.76;38.71
18918;BME280;9591;52.742;13.650;2022-07-29T14:44:19;101172.25;;;26.94;38.78